METAR AND TAF INFORMATION
METAR FOR CYNM
ADDS - METARS form results

(0359 UTC 07 April 2020)
Data provider http://aviationweather.gov/metar/data/
 
METAR text: CYNM 070300Z AUTO 36006KT 9SM BKN048 OVC060 M03/M07 A2994 RMK SLP158
Conditions at: CYNM (MATAGAMI AIRPORT, QC, CA) observed 0300 UTC 07 April 2020
Temperature: -3.0°C (27°F)
Dewpoint: -7.0°C (19°F) [RH = 74%]
Pressure (altimeter): 29.94 inches Hg (1014.0 mb)
[Sea-level pressure: 1015.8 mb]
Winds: from the N (360 degrees) at 7 MPH (6 knots; 3.1 m/s)
Visibility: 9 miles (14 km)
Ceiling: 4800 feet AGL
Clouds: broken clouds at 4800 feet AGL
overcast cloud deck at 6000 feet AGL
Weather: no significant weather observed at this time

 AIRPORT MAP

 RUNWAY INFORMATION
Runway 15 Runway length 5000 ft Runway width 100 ft
Runway elevation 908 ft Runway displaced threshold 0 ft Runway heading 134
Runway 33 Runway length 5000 ft Runway width 100 ft
Runway elevation 918 ft Runway displaced threshold 0 ft Runway heading 314

 AIRPORT FREQUENCIES
Type AWOS Name AWOS Frequency 127.45 MHZ
Type RCO Name QUEBEC RDO Frequency 123.55 MHZ
Type UNIC Name ATF/UNICOM Frequency 122.8 MHZ

 AIRPORT NEAR NAVIGATION AIDS
Type NDB Name Matagami Frequency 278 KHZ



Powered by Virtual Airlines Manager [v2.6.2]